Time;durP1;ratioP1;P1;durP2;ratioP2;P2;SDS_P1;SDS_P2;PMS_P1;PMS_P2;Temp;Humidity;BMP_temperature;BMP_pressure;BME280_temperature;BME280_humidity;BME280_pressure;Samples;Min_cycle;Max_cycle;Signal;HPM_P1;HPM_P2
2022/08/02 00:01:44;;;;;;;4.05;1.58;;;17.10;99.90;;;;;;5073663;28;20135;-73
2022/08/02 00:04:16;;;;;;;2.85;1.90;;;17.20;99.90;;;;;;5058480;28;20040;-73
2022/08/02 00:06:48;;;;;;;2.22;1.40;;;17.20;99.90;;;;;;5056932;28;20494;-72
2022/08/02 00:09:20;;;;;;;1.88;1.50;;;17.20;99.90;;;;;;5056636;28;20055;-73
2022/08/02 00:11:52;;;;;;;2.90;1.50;;;17.30;99.90;;;;;;5060968;28;20048;-72
2022/08/02 00:14:24;;;;;;;1.95;1.40;;;17.30;99.90;;;;;;5061569;28;20063;-73
2022/08/02 00:16:55;;;;;;;2.13;1.55;;;17.40;99.90;;;;;;5058057;28;20091;-73
2022/08/02 00:19:27;;;;;;;2.55;1.70;;;17.50;99.90;;;;;;5060498;28;20397;-73
2022/08/02 00:21:59;;;;;;;1.85;1.38;;;17.50;99.90;;;;;;5057518;28;20444;-72
2022/08/02 00:24:31;;;;;;;1.80;1.48;;;17.50;99.90;;;;;;5062740;28;20033;-73
2022/08/02 00:27:02;;;;;;;2.50;1.35;;;17.50;99.90;;;;;;5059236;28;20500;-72
2022/08/02 00:29:35;;;;;;;2.30;1.73;;;17.50;99.90;;;;;;5055620;28;20037;-73
2022/08/02 00:32:07;;;;;;;2.35;1.50;;;17.40;99.90;;;;;;5051616;28;20037;-74
2022/08/02 00:34:39;;;;;;;2.78;1.33;;;17.40;99.90;;;;;;5059177;28;20058;-75
2022/08/02 00:37:10;;;;;;;2.20;1.83;;;17.40;99.90;;;;;;5074225;28;20055;-74
2022/08/02 00:39:42;;;;;;;1.92;1.48;;;17.30;99.90;;;;;;5056557;28;20047;-74
2022/08/02 00:42:15;;;;;;;3.92;1.40;;;17.30;99.90;;;;;;5058424;28;20044;-75
2022/08/02 00:44:47;;;;;;;1.88;1.60;;;17.30;99.90;;;;;;5069356;28;20036;-74
2022/08/02 00:47:18;;;;;;;4.10;1.50;;;17.30;99.90;;;;;;5058589;28;20090;-73
2022/08/02 00:49:50;;;;;;;1.55;1.45;;;17.20;99.90;;;;;;5048802;28;20045;-74
2022/08/02 00:52:23;;;;;;;1.73;1.40;;;17.20;99.90;;;;;;5056216;28;20044;-74
2022/08/02 00:54:54;;;;;;;4.90;1.77;;;17.30;99.90;;;;;;5060869;28;20043;-73
2022/08/02 00:57:26;;;;;;;2.75;1.52;;;17.30;99.90;;;;;;5054608;28;20054;-73
2022/08/02 00:59:53;;;;;;;3.33;1.85;;;17.30;99.90;;;;;;5055250;28;20163;-73
2022/08/02 01:02:24;;;;;;;3.17;1.73;;;17.30;99.90;;;;;;5060367;28;20513;-73
2022/08/02 01:04:56;;;;;;;2.15;1.60;;;17.20;99.90;;;;;;5055742;28;20102;-73
2022/08/02 01:07:28;;;;;;;1.73;1.45;;;17.20;99.90;;;;;;5052671;28;20043;-75
2022/08/02 01:10:00;;;;;;;2.95;1.80;;;17.20;99.90;;;;;;5051486;28;20080;-74
2022/08/02 01:12:32;;;;;;;3.38;2.30;;;17.10;99.90;;;;;;5055584;28;20040;-73
2022/08/02 01:15:11;;;;;;;1.90;1.48;;;17.00;99.90;;;;;;5059343;28;20404;-73
2022/08/02 01:17:59;;;;;;;2.05;1.60;;;17.00;99.90;;;;;;5060446;28;20052;-73
2022/08/02 01:21:08;;;;;;;2.05;1.75;;;17.00;99.90;;;;;;5028541;28;20052;-73
2022/08/02 01:24:18;;;;;;;3.25;2.10;;;16.80;99.90;;;;;;5057483;28;20393;-73
2022/08/02 01:27:11;;;;;;;3.47;2.00;;;16.80;99.90;;;;;;5059494;28;20051;-74
2022/08/02 01:29:47;;;;;;;2.05;1.85;;;16.80;99.90;;;;;;5057172;28;20044;-74
2022/08/02 01:32:24;;;;;;;2.10;1.85;;;16.80;99.90;;;;;;5057187;28;20618;-74
2022/08/02 01:35:14;;;;;;;3.13;2.20;;;16.70;99.90;;;;;;5059297;28;20044;-73
2022/08/02 01:37:56;;;;;;;2.42;2.22;;;16.60;99.90;;;;;;5059532;28;20045;-74
2022/08/02 01:40:33;;;;;;;2.85;2.25;;;16.60;99.90;;;;;;5043184;28;20041;-73
2022/08/02 01:43:07;;;;;;;2.38;1.90;;;16.60;99.90;;;;;;5059924;28;20033;-73
2022/08/02 01:45:41;;;;;;;3.50;2.30;;;16.60;99.90;;;;;;5059198;28;20051;-74
2022/08/02 01:48:14;;;;;;;4.10;2.20;;;16.60;99.90;;;;;;5054018;28;20033;-74
2022/08/02 01:50:48;;;;;;;2.40;2.17;;;16.50;99.90;;;;;;5059067;28;20062;-73
2022/08/02 01:53:21;;;;;;;4.72;2.10;;;16.50;99.90;;;;;;5058930;28;20045;-73
2022/08/02 01:55:54;;;;;;;2.40;2.08;;;16.50;99.90;;;;;;5057875;28;20036;-73
2022/08/02 01:58:28;;;;;;;;;;;16.50;99.90;;;;;;5059751;28;20501;-74
2022/08/02 02:01:01;;;;;;;3.08;1.98;;;16.50;99.90;;;;;;5057227;28;20400;-74
2022/08/02 02:03:34;;;;;;;3.07;2.10;;;16.50;99.90;;;;;;5063226;28;20040;-74
2022/08/02 02:06:07;;;;;;;;;;;16.50;99.90;;;;;;5067017;28;20048;-74
2022/08/02 02:08:42;;;;;;;2.22;1.88;;;16.40;99.90;;;;;;5050371;28;19921;-73
2022/08/02 02:11:09;;;;;;;4.40;2.25;;;16.40;99.90;;;;;;5068454;28;20043;-75
2022/08/02 02:13:41;;;;;;;3.97;2.08;;;16.50;99.90;;;;;;5059102;28;20041;-74
2022/08/02 02:16:14;;;;;;;3.13;2.30;;;16.50;99.90;;;;;;5062135;28;20554;-73
2022/08/02 02:18:49;;;;;;;3.20;2.20;;;16.50;99.90;;;;;;5057296;28;20083;-74
2022/08/02 02:21:21;;;;;;;3.80;1.88;;;16.60;99.90;;;;;;5065439;28;20055;-74
2022/08/02 02:23:52;;;;;;;3.28;2.00;;;16.60;99.90;;;;;;5029281;28;20057;-73
2022/08/02 02:26:26;;;;;;;4.78;2.25;;;16.60;99.90;;;;;;5063650;28;20072;-73
2022/08/02 02:29:02;;;;;;;2.50;2.28;;;16.60;99.90;;;;;;5052540;28;20060;-73
2022/08/02 02:31:37;;;;;;;4.00;2.58;;;16.60;99.90;;;;;;5063251;28;20040;-73
2022/08/02 02:34:09;;;;;;;3.38;1.98;;;16.60;99.90;;;;;;5054446;28;20041;-73
2022/08/02 02:36:46;;;;;;;3.92;2.08;;;16.60;99.90;;;;;;5065426;28;20045;-74
2022/08/02 02:39:21;;;;;;;3.38;2.13;;;16.60;99.90;;;;;;5058781;28;20064;-73
2022/08/02 02:41:57;;;;;;;2.88;2.08;;;16.60;99.90;;;;;;5062612;28;20053;-73
2022/08/02 02:44:30;;;;;;;2.05;1.77;;;16.60;99.90;;;;;;5080480;28;20051;-73
2022/08/02 02:47:04;;;;;;;3.75;1.98;;;16.60;99.90;;;;;;5056509;28;20059;-73
2022/08/02 02:49:36;;;;;;;;;;;16.60;99.90;;;;;;5053553;28;20033;-73
2022/08/02 02:52:09;;;;;;;3.42;2.20;;;16.60;99.90;;;;;;5061696;28;20406;-74
2022/08/02 02:54:42;;;;;;;3.33;1.90;;;16.60;99.90;;;;;;5076281;28;20040;-73
2022/08/02 02:57:15;;;;;;;2.97;2.20;;;16.50;99.90;;;;;;5063777;28;20785;-73
2022/08/02 02:59:48;;;;;;;3.08;1.70;;;16.50;99.90;;;;;;5054141;28;20044;-73
2022/08/02 03:02:20;;;;;;;2.10;1.60;;;16.60;99.90;;;;;;5074601;28;20047;-73
2022/08/02 03:04:54;;;;;;;12.93;3.25;;;16.60;99.90;;;;;;5060565;28;20052;-73
2022/08/02 03:07:27;;;;;;;2.78;1.73;;;16.60;99.90;;;;;;5060214;28;20072;-74
2022/08/02 03:09:59;;;;;;;2.28;1.70;;;16.60;99.90;;;;;;5048507;28;20045;-73
2022/08/02 03:12:33;;;;;;;2.73;2.20;;;16.60;99.90;;;;;;5043493;28;20508;-73
2022/08/02 03:15:07;;;;;;;2.38;1.85;;;16.60;99.90;;;;;;5058264;28;20041;-74
2022/08/02 03:17:40;;;;;;;;;;;16.60;99.90;;;;;;5061398;28;20500;-73
2022/08/02 03:20:16;;;;;;;2.55;2.08;;;16.60;99.90;;;;;;5061510;28;19932;-74
2022/08/02 03:22:48;;;;;;;2.50;2.05;;;16.50;99.90;;;;;;5064762;28;20049;-73
2022/08/02 03:25:20;;;;;;;6.45;2.22;;;16.50;99.90;;;;;;5060540;28;20041;-73
2022/08/02 03:27:52;;;;;;;3.13;2.22;;;16.40;99.90;;;;;;5051792;28;20551;-73
2022/08/02 03:30:26;;;;;;;2.53;1.98;;;16.40;99.90;;;;;;5055385;28;20055;-74
2022/08/02 03:32:58;;;;;;;2.40;1.90;;;16.40;99.90;;;;;;5058117;28;20075;-73
2022/08/02 03:35:30;;;;;;;3.30;2.08;;;16.30;99.90;;;;;;5058261;28;20041;-74
2022/08/02 03:37:57;;;;;;;2.88;2.08;;;16.30;99.90;;;;;;5057943;28;20382;-73
2022/08/02 03:40:30;;;;;;;4.88;2.05;;;16.30;99.90;;;;;;5062696;28;20045;-73
2022/08/02 03:43:02;;;;;;;2.70;1.75;;;16.30;99.90;;;;;;5074557;28;20060;-73
2022/08/02 03:45:38;;;;;;;3.67;1.98;;;16.20;99.90;;;;;;5065553;28;20033;-73
2022/08/02 03:48:11;;;;;;;3.03;2.13;;;16.20;99.90;;;;;;5058877;28;20037;-73
2022/08/02 03:50:45;;;;;;;2.97;2.15;;;16.20;99.90;;;;;;5055881;28;20084;-74
2022/08/02 03:53:18;;;;;;;2.72;2.20;;;16.20;99.90;;;;;;5054799;28;20045;-73
2022/08/02 03:55:50;;;;;;;2.70;1.73;;;16.20;99.90;;;;;;5063788;28;20072;-73
2022/08/02 03:58:23;;;;;;;1.70;1.52;;;16.20;99.90;;;;;;5056141;28;20050;-73
2022/08/02 04:00:56;;;;;;;2.55;1.75;;;16.20;99.90;;;;;;5059213;28;20522;-73
2022/08/02 04:03:28;;;;;;;2.67;1.80;;;16.20;99.90;;;;;;5063040;28;20125;-72
2022/08/02 04:06:00;;;;;;;3.03;2.22;;;16.20;99.90;;;;;;5059074;28;20064;-74
2022/08/02 04:08:32;;;;;;;2.88;1.80;;;16.30;99.90;;;;;;5058165;28;20433;-74
2022/08/02 04:13:55;;;;;;;5.10;2.10;;;16.30;99.90;;;;;;5058031;28;20475;-74
2022/08/02 04:16:38;;;;;;;3.45;2.20;;;16.30;99.90;;;;;;5058527;28;20078;-74
2022/08/02 04:19:15;;;;;;;4.82;2.20;;;16.30;99.90;;;;;;5058647;28;20473;-73
2022/08/02 04:21:50;;;;;;;2.38;2.10;;;16.30;99.90;;;;;;5061162;28;20091;-74
2022/08/02 04:24:26;;;;;;;2.80;2.00;;;16.30;99.90;;;;;;5056906;28;20056;-74
2022/08/02 04:26:59;;;;;;;2.67;1.80;;;16.20;99.90;;;;;;5058483;28;20048;-75
2022/08/02 04:29:32;;;;;;;2.42;1.70;;;16.20;99.90;;;;;;5053932;28;20094;-73
2022/08/02 04:32:05;;;;;;;3.40;2.33;;;16.30;99.90;;;;;;5061759;28;20546;-73
2022/08/02 04:34:37;;;;;;;3.42;1.90;;;16.30;99.90;;;;;;5053998;28;20040;-72
2022/08/02 04:37:11;;;;;;;2.30;1.95;;;16.40;99.90;;;;;;5062538;28;20045;-73
2022/08/02 04:39:43;;;;;;;1.95;1.70;;;16.40;99.90;;;;;;5056349;28;20045;-73
2022/08/02 04:42:25;;;;;;;2.10;1.80;;;16.40;99.90;;;;;;5054971;28;20057;-73
2022/08/02 04:44:57;;;;;;;4.07;2.22;;;16.50;99.90;;;;;;5067631;28;20435;-73
2022/08/02 04:47:29;;;;;;;4.00;2.08;;;16.50;99.90;;;;;;5069030;28;20036;-73
2022/08/02 04:50:02;;;;;;;2.17;1.77;;;16.50;99.90;;;;;;5042885;28;20520;-73
2022/08/02 04:52:33;;;;;;;2.85;2.08;;;16.50;99.90;;;;;;5060572;28;20064;-73
2022/08/02 04:55:05;;;;;;;2.55;2.00;;;16.50;99.90;;;;;;5056072;28;20052;-73
2022/08/02 04:57:56;;;;;;;3.63;1.88;;;16.50;99.90;;;;;;5058725;28;20495;-73
2022/08/02 05:00:28;;;;;;;3.10;2.15;;;16.50;99.90;;;;;;5072829;28;20457;-73
2022/08/02 05:03:00;;;;;;;3.20;1.88;;;16.50;99.90;;;;;;5050082;28;20036;-73
2022/08/02 05:05:32;;;;;;;2.30;1.92;;;16.50;99.90;;;;;;5068035;28;20044;-72
2022/08/02 05:08:04;;;;;;;4.93;2.20;;;16.60;99.90;;;;;;5049335;28;20033;-72
2022/08/02 05:10:36;;;;;;;5.10;2.20;;;16.60;99.90;;;;;;5032841;28;20033;-73
2022/08/02 05:13:07;;;;;;;3.33;2.17;;;16.60;99.90;;;;;;5057709;28;20045;-73
2022/08/02 05:15:39;;;;;;;2.70;1.90;;;16.70;99.90;;;;;;5054219;28;20526;-72
2022/08/02 05:18:11;;;;;;;6.25;2.92;;;16.70;99.90;;;;;;5051056;28;20052;-73
2022/08/02 05:20:43;;;;;;;3.20;2.80;;;16.80;99.90;;;;;;5055186;28;20769;-72
2022/08/02 05:23:15;;;;;;;3.08;2.30;;;16.80;99.90;;;;;;5054850;28;20086;-73
2022/08/02 05:25:46;;;;;;;4.47;2.80;;;16.80;99.90;;;;;;5069460;28;20127;-73
2022/08/02 05:28:18;;;;;;;3.17;2.25;;;16.90;99.90;;;;;;5048614;28;20572;-73
2022/08/02 05:30:50;;;;;;;4.15;2.63;;;16.90;99.90;;;;;;5049988;28;20388;-73
2022/08/02 05:33:22;;;;;;;3.58;2.65;;;17.00;99.90;;;;;;5054697;28;20060;-72
2022/08/02 05:35:54;;;;;;;4.80;2.53;;;17.00;99.90;;;;;;5057164;28;20486;-72
2022/08/02 05:38:27;;;;;;;7.03;3.42;;;17.10;99.90;;;;;;5055020;28;20051;-71
2022/08/02 05:40:59;;;;;;;5.00;3.13;;;17.10;99.90;;;;;;5059787;28;20047;-71
2022/08/02 05:43:30;;;;;;;3.83;2.92;;;17.20;99.90;;;;;;5067171;23;20036;-91
2022/08/02 05:45:57;;;;;;;4.68;2.70;;;17.20;99.90;;;;;;5041212;28;20144;-91
2022/08/02 05:48:24;;;;;;;4.32;3.08;;;17.30;99.90;;;;;;5029110;28;20048;-90
2022/08/02 05:50:56;;;;;;;3.70;3.08;;;17.30;99.90;;;;;;5041354;28;20051;-89
2022/08/02 05:53:34;;;;;;;2.13;1.65;;;17.30;99.90;;;;;;5035368;28;20021;-91
2022/08/02 05:56:17;;;;;;;4.72;2.50;;;17.50;99.90;;;;;;5067299;23;20049;-73
2022/08/02 05:58:58;;;;;;;4.50;2.70;;;17.70;99.90;;;;;;5047974;28;20059;-74
2022/08/02 06:01:36;;;;;;;6.63;3.38;;;17.80;99.90;;;;;;5047330;28;20053;-74
2022/08/02 06:04:15;;;;;;;4.57;2.80;;;17.90;99.90;;;;;;5015870;28;20073;-74
2022/08/02 06:06:51;;;;;;;4.38;3.08;;;17.90;99.90;;;;;;5026767;28;20053;-74
2022/08/02 06:09:24;;;;;;;4.32;2.97;;;17.90;99.90;;;;;;5029255;28;20049;-74
2022/08/02 06:11:58;;;;;;;6.03;3.35;;;17.90;99.90;;;;;;5025005;28;20050;-74
2022/08/02 06:14:31;;;;;;;4.88;3.30;;;17.90;99.90;;;;;;5027361;28;20061;-74
2022/08/02 06:17:04;;;;;;;4.97;3.30;;;18.00;99.90;;;;;;5011330;28;20080;-73
2022/08/02 06:19:38;;;;;;;4.72;3.45;;;18.00;99.90;;;;;;5005019;28;20037;-74
2022/08/02 06:22:16;;;;;;;4.93;3.50;;;18.10;99.90;;;;;;5028130;28;20045;-74
2022/08/02 06:24:49;;;;;;;6.75;3.03;;;18.10;99.90;;;;;;5027631;28;20049;-74
2022/08/02 06:27:25;;;;;;;;;;;18.20;99.90;;;;;;5012425;28;20068;-74
2022/08/02 06:29:57;;;;;;;3.92;3.42;;;18.20;99.90;;;;;;5012741;28;19933;-74
2022/08/02 06:32:30;;;;;;;4.75;3.65;;;18.20;99.90;;;;;;5043202;28;20045;-74
2022/08/02 06:35:04;;;;;;;4.60;3.58;;;18.30;99.90;;;;;;5009383;28;20390;-74
2022/08/02 06:37:36;;;;;;;;;;;18.40;99.90;;;;;;5029218;28;20041;-74
2022/08/02 06:40:31;;;;;;;4.20;3.80;;;18.40;99.90;;;;;;5030258;28;19928;-74
2022/08/02 06:43:12;;;;;;;5.55;3.65;;;18.50;99.90;;;;;;5004075;28;20058;-74
2022/08/02 06:45:44;;;;;;;5.38;3.40;;;18.60;99.90;;;;;;5027508;28;20053;-74
2022/08/02 06:48:16;;;;;;;4.40;3.55;;;18.70;99.90;;;;;;5001863;28;20046;-74
2022/08/02 06:50:48;;;;;;;3.88;3.35;;;18.80;99.90;;;;;;5016120;28;20060;-74
2022/08/02 06:53:19;;;;;;;4.55;4.00;;;18.90;99.90;;;;;;5029173;28;20045;-74
2022/08/02 06:55:51;;;;;;;4.90;3.60;;;19.00;99.90;;;;;;5030649;28;20513;-74
2022/08/02 06:58:23;;;;;;;4.82;4.20;;;19.10;99.90;;;;;;5015253;28;20050;-74
2022/08/02 07:00:54;;;;;;;7.32;4.63;;;19.10;99.90;;;;;;5033685;28;20049;-73
2022/08/02 07:03:26;;;;;;;5.68;4.18;;;19.10;99.90;;;;;;5029435;28;20324;-74
2022/08/02 07:05:58;;;;;;;5.03;3.83;;;19.20;99.90;;;;;;5028660;28;20045;-74
2022/08/02 07:08:31;;;;;;;5.45;4.10;;;19.30;99.90;;;;;;5032446;28;20053;-74
2022/08/02 07:11:07;;;;;;;4.40;4.00;;;19.30;99.90;;;;;;5013228;28;20579;-74
2022/08/02 07:13:39;;;;;;;7.05;4.30;;;19.40;99.90;;;;;;5013510;28;20087;-74
2022/08/02 07:16:11;;;;;;;5.82;4.45;;;19.50;99.90;;;;;;5009609;28;20055;-74
2022/08/02 07:18:42;;;;;;;6.55;4.00;;;19.60;99.90;;;;;;5032040;28;20527;-74
2022/08/02 07:21:14;;;;;;;5.80;4.20;;;19.70;99.90;;;;;;5030673;28;20421;-74
2022/08/02 07:23:46;;;;;;;5.20;4.30;;;19.80;99.90;;;;;;5009207;28;20441;-74
2022/08/02 07:26:17;;;;;;;5.50;3.75;;;19.90;99.90;;;;;;5028819;28;20096;-74
2022/08/02 07:28:49;;;;;;;5.70;3.90;;;19.90;99.90;;;;;;5033105;28;20456;-74
2022/08/02 07:31:21;;;;;;;6.07;4.25;;;20.00;99.90;;;;;;5033106;28;20048;-74
2022/08/02 07:33:53;;;;;;;6.13;3.92;;;20.10;99.90;;;;;;5009508;28;20038;-74
2022/08/02 07:36:25;;;;;;;3.80;3.40;;;20.10;99.90;;;;;;5030858;28;20056;-74
2022/08/02 07:38:56;;;;;;;4.80;3.55;;;20.20;99.90;;;;;;5029702;28;20044;-73
2022/08/02 07:41:29;;;;;;;4.43;3.58;;;20.30;99.90;;;;;;5031239;28;20501;-74
2022/08/02 07:44:00;;;;;;;5.32;4.03;;;20.40;99.90;;;;;;5027385;28;20476;-74
2022/08/02 07:46:32;;;;;;;5.15;3.30;;;20.40;99.90;;;;;;5047284;28;20433;-74
2022/08/02 07:49:04;;;;;;;4.10;3.53;;;20.50;99.90;;;;;;5031350;28;20045;-74
2022/08/02 07:51:36;;;;;;;4.72;4.30;;;20.60;99.90;;;;;;5031408;28;20623;-74
2022/08/02 07:54:07;;;;;;;5.78;3.70;;;20.60;99.90;;;;;;5020876;28;20062;-74
2022/08/02 07:56:40;;;;;;;4.43;3.80;;;20.70;99.90;;;;;;5010878;28;20069;-74
2022/08/02 07:59:13;;;;;;;5.05;3.28;;;20.80;99.90;;;;;;5002396;28;20077;-74
2022/08/02 08:01:44;;;;;;;4.00;3.60;;;20.90;99.90;;;;;;5010950;28;20547;-74
2022/08/02 08:04:16;;;;;;;3.47;3.00;;;21.00;99.90;;;;;;5008185;28;20285;-74
2022/08/02 08:06:50;;;;;;;4.30;3.33;;;21.10;99.90;;;;;;4985355;28;20047;-74
2022/08/02 08:09:22;;;;;;;3.65;3.28;;;21.20;99.90;;;;;;5011517;28;20063;-74
2022/08/02 08:11:54;;;;;;;3.90;3.50;;;21.30;99.90;;;;;;5011071;28;20115;-73
2022/08/02 08:14:26;;;;;;;3.97;3.42;;;21.40;99.90;;;;;;4990603;28;20052;-74
2022/08/02 08:16:57;;;;;;;3.58;3.20;;;21.40;99.90;;;;;;5010669;28;20046;-73
2022/08/02 08:19:29;;;;;;;4.25;2.70;;;21.50;99.90;;;;;;5010982;28;20046;-74
2022/08/02 08:22:02;;;;;;;3.28;2.97;;;21.50;99.90;;;;;;5011497;28;20132;-74
2022/08/02 08:24:33;;;;;;;4.13;3.55;;;21.70;99.90;;;;;;4992602;28;20042;-73
2022/08/02 08:27:05;;;;;;;4.20;3.15;;;21.60;99.90;;;;;;4994088;28;20432;-74
2022/08/02 08:29:37;;;;;;;5.38;3.17;;;21.60;99.90;;;;;;4994958;28;20383;-73
2022/08/02 08:32:04;;;;;;;4.45;3.08;;;21.60;99.90;;;;;;4993306;28;20041;-73
2022/08/02 08:34:35;;;;;;;3.88;3.00;;;21.70;99.90;;;;;;5009370;28;20056;-73
2022/08/02 08:37:08;;;;;;;4.07;2.67;;;21.70;99.90;;;;;;5026536;28;20420;-73
2022/08/02 08:39:39;;;;;;;3.97;3.35;;;21.90;99.90;;;;;;4993494;28;20042;-73
2022/08/02 08:42:11;;;;;;;2.78;2.47;;;22.00;99.90;;;;;;4992692;28;20055;-73
2022/08/02 08:44:43;;;;;;;5.07;2.55;;;22.00;99.90;;;;;;5009745;28;20045;-73
2022/08/02 08:47:10;;;;;;;2.80;2.50;;;21.90;99.90;;;;;;5010365;28;20045;-73
2022/08/02 08:49:50;;;;;;;4.18;2.40;;;21.80;99.90;;;;;;4978516;28;20042;-73
2022/08/02 08:52:25;;;;;;;3.75;2.72;;;21.80;99.90;;;;;;5010092;28;20042;-73
2022/08/02 08:54:57;;;;;;;3.13;2.83;;;21.90;99.90;;;;;;4991607;28;20046;-73
2022/08/02 08:57:31;;;;;;;3.03;2.47;;;22.00;99.90;;;;;;4993133;28;20054;-73
2022/08/02 09:00:03;;;;;;;4.57;2.78;;;22.20;99.90;;;;;;5011668;28;20054;-73
2022/08/02 09:02:36;;;;;;;4.07;2.72;;;22.50;99.90;;;;;;4998788;28;20494;-73
2022/08/02 09:05:10;;;;;;;2.13;1.92;;;22.70;99.90;;;;;;5008786;28;20054;-73
2022/08/02 09:07:45;;;;;;;2.15;2.00;;;22.90;99.90;;;;;;4998847;28;20050;-73
2022/08/02 09:10:43;;;;;;;2.25;1.65;;;23.20;99.90;;;;;;5012359;28;20046;-73
2022/08/02 09:13:22;;;;;;;2.75;2.15;;;23.30;99.90;;;;;;5008462;28;20034;-73
2022/08/02 09:15:59;;;;;;;2.67;2.22;;;23.40;99.90;;;;;;4994015;28;20393;-73
2022/08/02 09:18:39;;;;;;;3.20;2.10;;;23.60;99.90;;;;;;4987408;28;20469;-73
2022/08/02 09:21:13;;;;;;;2.22;2.00;;;23.70;99.90;;;;;;5010669;28;20064;-73
2022/08/02 09:23:47;;;;;;;2.47;2.28;;;23.80;99.90;;;;;;5007622;28;20050;-73
2022/08/02 09:26:21;;;;;;;2.80;2.50;;;24.00;99.90;;;;;;5009644;28;20552;-74
2022/08/02 09:29:00;;;;;;;2.92;2.53;;;24.00;99.90;;;;;;5010875;28;20046;-73
2022/08/02 09:31:33;;;;;;;2.70;2.38;;;23.80;99.90;;;;;;4990399;28;20141;-74
2022/08/02 09:34:05;;;;;;;3.50;2.72;;;23.60;99.90;;;;;;4980532;28;20042;-73
2022/08/02 09:36:39;;;;;;;3.65;2.20;;;23.40;99.90;;;;;;4991188;28;20436;-73
2022/08/02 09:39:14;;;;;;;4.20;2.20;;;23.20;99.90;;;;;;5009498;28;20045;-73
2022/08/02 09:41:46;;;;;;;2.40;2.03;;;23.00;99.90;;;;;;5009721;28;20046;-74
2022/08/02 09:44:17;;;;;;;2.10;1.90;;;22.80;99.90;;;;;;5008241;28;20056;-73
2022/08/02 09:46:49;;;;;;;2.78;2.17;;;22.70;99.90;;;;;;5010272;28;20094;-73
2022/08/02 09:49:21;;;;;;;3.10;2.15;;;22.80;99.90;;;;;;5009812;28;20119;-73
2022/08/02 09:51:55;;;;;;;3.80;2.63;;;22.70;99.90;;;;;;4993041;28;20497;-73
2022/08/02 09:54:28;;;;;;;2.75;2.20;;;22.70;99.90;;;;;;5008626;28;20053;-73
2022/08/02 09:57:01;;;;;;;2.35;1.80;;;22.70;99.90;;;;;;5019322;28;20072;-73
2022/08/02 09:59:28;;;;;;;1.90;1.67;;;22.70;99.90;;;;;;5012951;28;20063;-74
2022/08/02 10:02:10;;;;;;;3.03;1.90;;;23.00;99.90;;;;;;5021509;28;20111;-73
2022/08/02 10:04:42;;;;;;;2.47;1.65;;;23.30;99.90;;;;;;5025631;28;20045;-74
2022/08/02 10:07:15;;;;;;;2.20;1.73;;;23.50;99.90;;;;;;5011934;28;20053;-73
2022/08/02 10:09:47;;;;;;;2.33;1.90;;;23.60;99.90;;;;;;5013951;28;20049;-73
2022/08/02 10:12:21;;;;;;;2.22;1.88;;;23.90;99.90;;;;;;5018485;28;20042;-73
2022/08/02 10:14:53;;;;;;;3.75;1.90;;;24.10;99.90;;;;;;5008180;28;20038;-73
2022/08/02 10:17:25;;;;;;;4.53;2.03;;;24.40;99.90;;;;;;5028637;28;20052;-73
2022/08/02 10:19:57;;;;;;;4.80;1.75;;;24.60;99.90;;;;;;5027981;28;20390;-73
2022/08/02 10:22:29;;;;;;;3.78;1.70;;;24.80;99.90;;;;;;5037712;28;20053;-73
2022/08/02 10:25:03;;;;;;;3.13;1.90;;;25.00;99.90;;;;;;5029540;28;20405;-73
2022/08/02 10:27:35;;;;;;;2.03;1.48;;;25.10;99.90;;;;;;5007513;28;20056;-73
2022/08/02 10:30:08;;;;;;;3.28;1.50;;;25.20;99.90;;;;;;5034183;28;20086;-73
2022/08/02 10:32:45;;;;;;;2.33;1.30;;;25.20;99.90;;;;;;5014951;28;20048;-73
2022/08/02 10:35:21;;;;;;;1.90;1.67;;;25.30;99.90;;;;;;5030767;28;20064;-73
2022/08/02 10:38:02;;;;;;;2.22;1.73;;;25.10;99.90;;;;;;4997968;28;20408;-73
2022/08/02 10:40:47;;;;;;;2.03;1.83;;;24.80;99.90;;;;;;5028960;28;20073;-73
2022/08/02 10:43:31;;;;;;;3.00;1.50;;;24.60;99.90;;;;;;5044386;28;20041;-73
2022/08/02 10:46:23;;;;;;;2.28;1.52;;;24.40;99.90;;;;;;5014801;28;20045;-73
2022/08/02 10:49:12;;;;;;;2.83;1.38;;;24.30;99.90;;;;;;5033797;28;20056;-73
2022/08/02 10:52:02;;;;;;;2.72;1.80;;;24.30;99.90;;;;;;5033726;28;20050;-73
2022/08/02 10:54:39;;;;;;;3.50;1.33;;;24.50;99.90;;;;;;5030613;28;20045;-73
2022/08/02 10:57:35;;;;;;;2.45;1.38;;;24.70;99.90;;;;;;5030918;28;20155;-73
2022/08/02 11:00:25;;;;;;;1.75;1.52;;;24.80;99.90;;;;;;5014484;28;20485;-73
2022/08/02 11:02:57;;;;;;;1.35;1.25;;;24.80;99.90;;;;;;5029960;28;20048;-73
2022/08/02 11:05:30;;;;;;;1.35;1.25;;;24.80;99.90;;;;;;5028903;28;20033;-73
2022/08/02 11:08:19;;;;;;;2.05;1.60;;;24.70;99.90;;;;;;5032568;28;20042;-73
2022/08/02 11:10:56;;;;;;;1.75;1.50;;;25.00;99.90;;;;;;5031559;28;20049;-74
2022/08/02 11:13:29;;;;;;;1.65;1.55;;;25.20;99.90;;;;;;5024967;28;20041;-73
2022/08/02 11:16:04;;;;;;;2.30;1.58;;;25.20;99.90;;;;;;5024433;28;20068;-73
2022/08/02 11:18:51;;;;;;;1.60;1.50;;;25.20;99.90;;;;;;5025993;28;20045;-73
2022/08/02 11:21:27;;;;;;;1.88;1.13;;;25.00;99.90;;;;;;5026683;28;20052;-73
2022/08/02 11:24:29;;;;;;;1.98;1.10;;;25.00;99.90;;;;;;5025470;28;20045;-73
2022/08/02 11:27:07;;;;;;;1.85;1.20;;;24.90;99.90;;;;;;5026309;28;20489;-73
2022/08/02 11:29:43;;;;;;;1.50;1.17;;;25.10;99.90;;;;;;5028453;28;20048;-73
2022/08/02 11:32:21;;;;;;;2.53;1.33;;;25.20;99.90;;;;;;5029032;28;20547;-73
2022/08/02 11:34:54;;;;;;;1.50;1.13;;;25.40;99.90;;;;;;5025259;28;20045;-73
2022/08/02 11:37:26;;;;;;;;;;;25.60;99.90;;;;;;5022060;28;20054;-73
2022/08/02 11:39:58;;;;;;;1.48;1.20;;;25.80;99.90;;;;;;5030038;28;19925;-73
2022/08/02 11:42:35;;;;;;;2.50;1.40;;;26.00;99.90;;;;;;5030914;28;20077;-73
2022/08/02 11:45:08;;;;;;;1.40;1.30;;;26.20;99.90;;;;;;5028080;28;20076;-73
2022/08/02 11:47:53;;;;;;;1.15;1.05;;;26.30;99.90;;;;;;5014436;28;20474;-73
2022/08/02 11:50:25;;;;;;;1.63;1.35;;;26.40;99.90;;;;;;5032352;28;20038;-73
2022/08/02 11:52:57;;;;;;;2.58;1.30;;;26.40;99.90;;;;;;5028107;28;20037;-73
2022/08/02 11:55:31;;;;;;;1.88;1.38;;;26.40;99.90;;;;;;5043113;23;20088;-69
2022/08/02 11:58:04;;;;;;;1.10;1.00;;;26.50;99.90;;;;;;5031898;28;20044;-69
2022/08/02 12:00:37;;;;;;;1.60;1.20;;;26.60;99.90;;;;;;5051967;28;20515;-69
2022/08/02 12:03:08;;;;;;;1.75;1.33;;;26.70;99.90;;;;;;5050917;28;20048;-69
2022/08/02 12:05:47;;;;;;;3.67;1.55;;;26.90;99.90;;;;;;5048619;28;20051;-69
2022/08/02 12:08:23;;;;;;;1.90;1.00;;;26.90;99.90;;;;;;5063758;28;20045;-68
2022/08/02 12:10:55;;;;;;;1.77;1.67;;;26.80;99.90;;;;;;5051829;28;20041;-69
2022/08/02 12:13:26;;;;;;;1.70;1.10;;;26.70;99.90;;;;;;5055692;28;20049;-71
2022/08/02 12:19:18;;;;;;;1.35;1.10;;;26.80;99.90;;;;;;5049619;28;20033;-69
2022/08/02 12:21:40;;;;;;;1.50;1.10;;;27.00;99.90;;;;;;5050585;28;20052;-69
2022/08/02 12:24:13;;;;;;;1.30;1.08;;;26.80;99.90;;;;;;5048021;28;20041;-69
2022/08/02 12:26:46;;;;;;;1.50;1.20;;;26.60;99.90;;;;;;5050559;28;20051;-68
2022/08/02 12:29:28;;;;;;;1.90;1.38;;;26.60;99.90;;;;;;5048067;28;20037;-69
2022/08/02 12:32:01;;;;;;;1.10;0.93;;;26.70;99.90;;;;;;5051420;28;20128;-69
2022/08/02 12:34:30;;;;;;;2.22;2.03;;;27.00;99.90;;;;;;5050257;28;20037;-70
2022/08/02 12:37:09;;;;;;;3.30;1.25;;;27.20;99.90;;;;;;5050372;28;20696;-69
2022/08/02 12:39:48;;;;;;;1.10;1.00;;;27.40;99.60;;;;;;5049377;28;20041;-69
2022/08/02 12:42:20;;;;;;;3.42;1.40;;;27.50;98.10;;;;;;5045979;28;20042;-69
2022/08/02 12:44:55;;;;;;;2.13;1.30;;;27.70;99.00;;;;;;5050810;28;20048;-69
2022/08/02 12:47:26;;;;;;;1.30;1.20;;;27.70;99.40;;;;;;5049275;28;20037;-69
2022/08/02 12:50:20;;;;;;;1.65;1.10;;;27.80;98.00;;;;;;5051212;28;20029;-69
2022/08/02 12:53:14;;;;;;;1.80;1.27;;;27.80;98.00;;;;;;5050571;28;20049;-69
2022/08/02 12:55:54;;;;;;;1.10;1.00;;;28.00;98.30;;;;;;5045191;28;20104;-69
2022/08/02 12:58:26;;;;;;;1.33;1.10;;;28.10;97.60;;;;;;5049462;28;20055;-69
2022/08/02 13:01:00;;;;;;;1.60;1.17;;;28.00;96.70;;;;;;5043666;28;20059;-69
2022/08/02 13:03:31;;;;;;;1.75;1.38;;;27.90;95.70;;;;;;5051343;28;20052;-69
2022/08/02 13:06:03;;;;;;;1.77;1.13;;;27.90;95.90;;;;;;5059410;28;20045;-69
2022/08/02 13:08:35;;;;;;;1.42;1.15;;;28.00;95.30;;;;;;5051013;28;20416;-69
2022/08/02 13:11:07;;;;;;;1.52;1.35;;;28.10;96.50;;;;;;5031336;28;20049;-69
2022/08/02 13:13:39;;;;;;;1.38;1.20;;;28.50;96.20;;;;;;5050809;28;20059;-69
2022/08/02 13:16:11;;;;;;;2.85;1.20;;;28.80;95.90;;;;;;5049673;28;20037;-69
2022/08/02 13:18:45;;;;;;;3.42;1.30;;;29.00;95.40;;;;;;5051000;28;20132;-69
2022/08/02 13:21:16;;;;;;;2.60;1.38;;;29.30;95.80;;;;;;5053823;28;20041;-69
2022/08/02 13:23:48;;;;;;;2.67;1.30;;;29.50;96.10;;;;;;5046602;28;20045;-69
2022/08/02 13:26:20;;;;;;;1.30;1.20;;;29.60;94.10;;;;;;5048598;28;20037;-69
2022/08/02 13:28:52;;;;;;;2.08;1.20;;;29.80;95.10;;;;;;5060358;28;20037;-69
2022/08/02 13:31:23;;;;;;;1.40;1.20;;;29.90;93.30;;;;;;5048536;28;20061;-69